Time;durP1;ratioP1;P1;durP2;ratioP2;P2;SDS_P1;SDS_P2;PMS_P1;PMS_P2;Temp;Humidity;BMP_temperature;BMP_pressure;BME280_temperature;BME280_humidity;BME280_pressure;Samples;Min_cycle;Max_cycle;Signal;HPM_P1;HPM_P2
2022/12/03 00:01:38;;;;;;;35.65;16.58;;;28.90;88.30;;;;;;5105337;28;20054;-42
2022/12/03 00:04:04;;;;;;;32.10;12.52;;;28.90;88.30;;;;;;5105283;28;20024;-42
2022/12/03 00:06:31;;;;;;;22.05;9.45;;;28.90;88.50;;;;;;5105136;28;20052;-46
2022/12/03 00:08:58;;;;;;;25.85;8.60;;;28.90;88.60;;;;;;5105314;28;20036;-41
2022/12/03 00:11:24;;;;;;;18.55;6.90;;;28.90;88.60;;;;;;5104605;28;20031;-41
2022/12/03 00:13:51;;;;;;;13.77;5.38;;;28.90;88.60;;;;;;5105131;28;20024;-45
2022/12/03 00:16:17;;;;;;;15.10;5.10;;;28.80;88.50;;;;;;5104570;28;20099;-39
2022/12/03 00:18:44;;;;;;;11.07;3.15;;;28.80;88.50;;;;;;5105152;28;20047;-40
2022/12/03 00:21:10;;;;;;;11.85;4.28;;;28.80;88.50;;;;;;5104904;28;20102;-43
2022/12/03 00:23:37;;;;;;;14.43;5.07;;;28.80;88.50;;;;;;5104851;28;20271;-42
2022/12/03 00:26:03;;;;;;;15.38;6.78;;;28.80;88.40;;;;;;5104825;28;20344;-39
2022/12/03 00:28:30;;;;;;;12.65;6.20;;;28.80;88.50;;;;;;5104997;28;20032;-42
2022/12/03 00:30:56;;;;;;;12.73;5.30;;;28.80;88.40;;;;;;5104417;28;20039;-41
2022/12/03 00:33:23;;;;;;;10.63;5.53;;;28.80;88.50;;;;;;5104733;28;20077;-44
2022/12/03 00:35:50;;;;;;;10.82;4.63;;;28.80;88.50;;;;;;5104665;28;20331;-45
2022/12/03 00:38:16;;;;;;;11.45;4.25;;;28.80;89.00;;;;;;5086007;28;20189;-40
2022/12/03 00:40:43;;;;;;;9.93;3.67;;;28.80;89.00;;;;;;5104562;28;20069;-41
2022/12/03 00:43:10;;;;;;;13.02;3.67;;;28.80;88.50;;;;;;5104390;28;20269;-40
2022/12/03 00:45:37;;;;;;;12.95;4.20;;;28.80;88.50;;;;;;5103429;28;20032;-47
2022/12/03 00:48:05;;;;;;;10.52;3.83;;;28.80;88.50;;;;;;5104291;28;20016;-44
2022/12/03 00:50:31;;;;;;;24.65;4.35;;;28.70;88.50;;;;;;5104233;28;20072;-42
2022/12/03 00:52:58;;;;;;;13.38;3.42;;;28.70;88.60;;;;;;5104067;28;20028;-45
2022/12/03 00:55:25;;;;;;;15.93;3.40;;;28.70;88.50;;;;;;5104334;28;20062;-42
2022/12/03 00:57:51;;;;;;;9.13;2.83;;;28.70;88.50;;;;;;5103667;28;20335;-44
2022/12/03 01:00:23;;;;;;;8.07;3.00;;;28.70;88.40;;;;;;5103833;28;20040;-45
2022/12/03 01:02:51;;;;;;;12.65;3.10;;;28.70;88.40;;;;;;5086061;28;20209;-40
2022/12/03 01:05:18;;;;;;;11.32;2.88;;;28.70;88.40;;;;;;5103872;28;20312;-44
2022/12/03 01:07:49;;;;;;;12.60;3.13;;;28.70;88.50;;;;;;5103964;28;20035;-42
2022/12/03 01:10:16;;;;;;;7.45;2.63;;;28.70;88.40;;;;;;5104135;28;20189;-39
2022/12/03 01:12:44;;;;;;;9.35;3.42;;;28.60;88.40;;;;;;5104117;28;20008;-38
2022/12/03 01:15:11;;;;;;;10.60;2.55;;;28.70;88.50;;;;;;5086642;28;20028;-40
2022/12/03 01:17:37;;;;;;;11.85;2.63;;;28.70;88.60;;;;;;5104030;28;20320;-43
2022/12/03 01:20:06;;;;;;;9.88;2.53;;;28.60;88.60;;;;;;5104402;28;20043;-45
2022/12/03 01:22:32;;;;;;;6.30;2.10;;;28.60;88.70;;;;;;5103910;28;20028;-41
2022/12/03 01:24:59;;;;;;;24.08;3.20;;;28.60;88.70;;;;;;5104314;28;20376;-46
2022/12/03 01:27:26;;;;;;;60.28;6.95;;;28.60;88.70;;;;;;5103969;28;20032;-39
2022/12/03 01:29:52;;;;;;;38.55;3.58;;;28.60;88.80;;;;;;5104282;28;20026;-39
2022/12/03 01:32:19;;;;;;;45.00;4.47;;;28.60;88.70;;;;;;5103886;28;20074;-39
2022/12/03 01:34:47;;;;;;;24.90;3.58;;;28.60;88.80;;;;;;5104463;28;20308;-41
2022/12/03 01:37:14;;;;;;;16.33;2.67;;;28.60;88.80;;;;;;5103751;28;20040;-41
2022/12/03 01:39:41;;;;;;;21.45;3.00;;;28.60;88.90;;;;;;5085927;28;20054;-44
2022/12/03 01:42:15;;;;;;;126.18;7.95;;;28.60;89.00;;;;;;5103771;28;20111;-44
2022/12/03 01:44:42;;;;;;;28.80;3.30;;;28.60;89.20;;;;;;5104010;28;20032;-40
2022/12/03 01:47:17;;;;;;;21.75;2.63;;;28.60;89.10;;;;;;5103795;28;20028;-40
2022/12/03 01:49:55;;;;;;;22.50;2.45;;;28.60;89.00;;;;;;5103966;28;20028;-46
2022/12/03 01:52:29;;;;;;;11.40;2.00;;;28.60;89.00;;;;;;5103496;28;20236;-42
2022/12/03 01:54:59;;;;;;;7.47;1.30;;;28.60;88.90;;;;;;5086310;28;20091;-42
2022/12/03 01:57:40;;;;;;;9.25;1.55;;;28.60;88.90;;;;;;5106201;28;20073;-45
2022/12/03 02:00:09;;;;;;;11.65;1.60;;;28.60;88.90;;;;;;5107756;28;20074;-41
2022/12/03 02:02:36;;;;;;;8.98;2.28;;;28.60;89.00;;;;;;5107170;28;20063;-44
2022/12/03 02:05:14;;;;;;;12.70;2.50;;;28.60;89.10;;;;;;5108041;28;20134;-40
2022/12/03 02:07:40;;;;;;;9.50;2.83;;;28.60;89.10;;;;;;5107116;28;20034;-45
2022/12/03 02:10:07;;;;;;;7.93;3.25;;;28.60;89.10;;;;;;5107863;28;20024;-41
2022/12/03 02:12:38;;;;;;;13.27;3.40;;;28.50;89.10;;;;;;5107292;28;20028;-45
2022/12/03 02:15:07;;;;;;;10.60;3.70;;;28.50;89.30;;;;;;5107703;28;20024;-41
2022/12/03 02:17:34;;;;;;;20.38;4.18;;;28.50;89.40;;;;;;5107113;28;20316;-40
2022/12/03 02:20:05;;;;;;;9.68;3.42;;;28.50;89.40;;;;;;5089283;28;20028;-41
2022/12/03 02:22:45;;;;;;;11.43;4.20;;;28.50;89.50;;;;;;5106936;28;20035;-42
2022/12/03 02:25:18;;;;;;;16.70;8.07;;;28.50;89.50;;;;;;5088961;28;20292;-40
2022/12/03 02:27:46;;;;;;;32.45;14.88;;;28.50;89.70;;;;;;5106880;28;20032;-41
2022/12/03 02:30:17;;;;;;;38.70;17.35;;;28.50;89.70;;;;;;5107535;28;20039;-47
2022/12/03 02:32:44;;;;;;;28.23;14.07;;;28.50;89.80;;;;;;5106976;28;20035;-47
2022/12/03 02:35:17;;;;;;;25.50;11.88;;;28.50;89.80;;;;;;5107326;28;20020;-46
2022/12/03 02:37:45;;;;;;;16.60;8.48;;;28.40;89.80;;;;;;5088721;28;20047;-41
2022/12/03 02:40:17;;;;;;;21.77;6.95;;;28.40;90.00;;;;;;5107061;28;20024;-41
2022/12/03 02:42:45;;;;;;;14.77;5.63;;;28.40;90.00;;;;;;5106949;28;20024;-43
2022/12/03 02:45:12;;;;;;;8.32;3.85;;;28.40;89.90;;;;;;5107102;28;20028;-41
2022/12/03 02:47:45;;;;;;;6.90;3.33;;;28.40;90.00;;;;;;5106122;28;20043;-43
2022/12/03 02:50:16;;;;;;;8.05;3.00;;;28.40;90.00;;;;;;5106877;28;20028;-41
2022/12/03 02:52:46;;;;;;;7.75;3.08;;;28.30;90.00;;;;;;5106327;28;20342;-41
2022/12/03 02:55:15;;;;;;;8.38;2.70;;;28.30;90.00;;;;;;5107060;28;20036;-48
2022/12/03 02:57:45;;;;;;;8.82;3.70;;;28.30;90.10;;;;;;5106558;28;20020;-40
2022/12/03 03:00:13;;;;;;;8.68;4.63;;;28.30;90.00;;;;;;5106103;28;20104;-41
2022/12/03 03:02:40;;;;;;;7.22;3.80;;;28.30;90.00;;;;;;5106450;28;20319;-44
2022/12/03 03:05:09;;;;;;;7.47;4.03;;;28.30;90.10;;;;;;5106892;28;20304;-40
2022/12/03 03:07:36;;;;;;;7.35;3.67;;;28.30;90.10;;;;;;5105391;28;20051;-41
2022/12/03 03:10:06;;;;;;;5.47;3.38;;;28.20;90.10;;;;;;5106470;28;20042;-42
2022/12/03 03:12:33;;;;;;;9.73;3.95;;;28.20;90.10;;;;;;5105936;28;20042;-42
2022/12/03 03:15:00;;;;;;;6.78;3.85;;;28.20;90.20;;;;;;5106575;28;20091;-42
2022/12/03 03:17:27;;;;;;;7.40;3.42;;;28.20;90.20;;;;;;5106190;28;20016;-41
2022/12/03 03:19:53;;;;;;;5.47;2.80;;;28.20;90.30;;;;;;5106074;28;20196;-40
2022/12/03 03:22:20;;;;;;;5.35;2.67;;;28.10;90.30;;;;;;5105994;28;20035;-41
2022/12/03 03:24:46;;;;;;;9.07;2.33;;;28.10;90.40;;;;;;5106529;28;20024;-41
2022/12/03 03:27:13;;;;;;;5.40;2.20;;;28.10;90.30;;;;;;5106004;28;20056;-46
2022/12/03 03:29:40;;;;;;;3.17;2.20;;;28.10;90.30;;;;;;5087764;28;20071;-43
2022/12/03 03:32:06;;;;;;;5.25;2.63;;;28.10;90.20;;;;;;5105848;28;20081;-42
2022/12/03 03:34:33;;;;;;;10.60;4.93;;;28.10;90.10;;;;;;5106030;28;20308;-41
2022/12/03 03:37:00;;;;;;;7.03;4.05;;;28.00;90.10;;;;;;5105763;28;20034;-47
2022/12/03 03:39:26;;;;;;;12.52;4.68;;;28.00;90.10;;;;;;5106008;28;20219;-47
2022/12/03 03:41:53;;;;;;;9.52;3.15;;;28.00;90.10;;;;;;5105637;28;20051;-45
2022/12/03 03:44:20;;;;;;;9.02;3.03;;;28.00;90.10;;;;;;5105735;28;20032;-49
2022/12/03 03:46:47;;;;;;;6.82;2.30;;;28.00;90.10;;;;;;5105590;28;20020;-40
2022/12/03 03:49:15;;;;;;;6.95;2.10;;;28.00;90.20;;;;;;5105624;28;20040;-41
2022/12/03 03:51:41;;;;;;;6.78;2.20;;;28.00;90.20;;;;;;5105281;28;20076;-43
2022/12/03 03:54:08;;;;;;;7.72;2.40;;;28.00;90.20;;;;;;5105670;28;20312;-42
2022/12/03 03:56:36;;;;;;;4.82;1.70;;;28.00;90.20;;;;;;5105435;28;20036;-42
2022/12/03 03:59:04;;;;;;;9.23;2.00;;;28.00;90.30;;;;;;5105339;28;20095;-40
2022/12/03 04:01:32;;;;;;;6.85;1.85;;;28.00;90.30;;;;;;5105163;28;20044;-43
2022/12/03 04:03:59;;;;;;;7.22;1.95;;;28.00;90.30;;;;;;5105467;28;20020;-46
2022/12/03 04:06:27;;;;;;;7.47;2.13;;;28.00;90.30;;;;;;5105208;28;20028;-41
2022/12/03 04:08:53;;;;;;;7.13;2.70;;;27.90;90.30;;;;;;5104929;28;20295;-43
2022/12/03 04:14:05;;;;;;;5.60;1.60;;;27.90;90.30;;;;;;5109629;28;20031;-44
2022/12/03 04:16:31;;;;;;;5.68;1.90;;;27.90;90.30;;;;;;5105112;28;20035;-48
2022/12/03 04:18:58;;;;;;;5.25;1.63;;;27.90;90.30;;;;;;5105162;28;20356;-54
2022/12/03 04:24:11;;;;;;;6.55;1.80;;;27.90;90.40;;;;;;5112999;28;20073;-42
2022/12/03 04:29:26;;;;;;;5.55;1.40;;;27.90;90.30;;;;;;5086785;28;20094;-39
2022/12/03 04:37:22;;;;;;;4.95;1.30;;;27.80;90.40;;;;;;5104693;28;20081;-40
2022/12/03 04:39:49;;;;;;;6.05;1.30;;;27.80;90.50;;;;;;5107698;28;20024;-41
2022/12/03 04:42:16;;;;;;;3.80;1.33;;;27.80;90.50;;;;;;5116162;27;20094;-39
2022/12/03 04:44:42;;;;;;;4.60;1.05;;;27.80;90.60;;;;;;5125356;28;20020;-39
2022/12/03 04:47:11;;;;;;;2.88;1.27;;;27.80;90.60;;;;;;5124778;28;20401;-41
2022/12/03 04:49:47;;;;;;;3.53;1.15;;;27.80;90.80;;;;;;5120852;27;20094;-38
2022/12/03 04:52:16;;;;;;;3.00;1.33;;;27.80;90.70;;;;;;5110364;28;20028;-36
2022/12/03 04:54:42;;;;;;;6.85;1.67;;;27.80;90.80;;;;;;5112340;28;20024;-37
2022/12/03 04:57:10;;;;;;;7.22;3.35;;;27.80;90.80;;;;;;5124658;28;20271;-39
2022/12/03 04:59:37;;;;;;;12.63;6.53;;;27.80;90.90;;;;;;5124569;28;20047;-40
2022/12/03 05:02:05;;;;;;;5.75;2.63;;;27.70;90.80;;;;;;5121533;28;20024;-38
2022/12/03 05:04:32;;;;;;;6.72;2.08;;;27.70;90.80;;;;;;5113955;28;20073;-46
2022/12/03 05:06:59;;;;;;;5.65;1.90;;;27.70;91.00;;;;;;5106652;28;20038;-39
2022/12/03 05:09:25;;;;;;;6.10;2.22;;;27.70;90.90;;;;;;5132884;27;20027;-42
2022/12/03 05:11:52;;;;;;;5.57;1.92;;;27.70;90.90;;;;;;5116205;28;20059;-39
2022/12/03 05:14:18;;;;;;;3.97;1.50;;;27.70;91.00;;;;;;5109794;28;20225;-41
2022/12/03 05:16:45;;;;;;;4.18;1.58;;;27.60;90.90;;;;;;5119004;28;20024;-40
2022/12/03 05:19:11;;;;;;;4.20;1.48;;;27.60;91.00;;;;;;5123270;28;20071;-38
2022/12/03 05:21:38;;;;;;;6.90;1.50;;;27.60;91.00;;;;;;5116926;28;20239;-50
2022/12/03 05:24:05;;;;;;;4.53;1.38;;;27.50;91.00;;;;;;5124206;28;20096;-43
2022/12/03 05:26:31;;;;;;;7.28;1.55;;;27.50;91.00;;;;;;5115660;28;20035;-41
2022/12/03 05:28:58;;;;;;;3.30;1.40;;;27.50;91.10;;;;;;5104102;28;20308;-41
2022/12/03 05:31:25;;;;;;;4.10;1.30;;;27.50;91.10;;;;;;5104736;28;20099;-40
2022/12/03 05:33:51;;;;;;;4.55;1.25;;;27.50;91.00;;;;;;5109435;27;20016;-40
2022/12/03 05:36:18;;;;;;;3.83;1.00;;;27.50;91.10;;;;;;5110905;27;20020;-45
2022/12/03 05:38:44;;;;;;;2.88;1.15;;;27.50;91.10;;;;;;5124052;28;20020;-38
2022/12/03 05:43:56;;;;;;;2.85;1.13;;;27.50;91.10;;;;;;5112058;27;20064;-43
2022/12/03 05:46:22;;;;;;;4.78;1.50;;;27.40;91.10;;;;;;5122448;28;20057;-41
2022/12/03 05:48:49;;;;;;;3.30;1.38;;;27.40;91.20;;;;;;5108125;28;20036;-41
2022/12/03 05:51:15;;;;;;;5.07;1.50;;;27.40;91.20;;;;;;5107570;28;20024;-40
2022/12/03 05:53:42;;;;;;;3.65;1.40;;;27.40;91.20;;;;;;5107866;28;20359;-43
2022/12/03 05:56:08;;;;;;;4.30;1.38;;;27.40;91.30;;;;;;5113944;28;20091;-42
2022/12/03 05:58:35;;;;;;;3.70;1.50;;;27.30;91.30;;;;;;5128221;28;20028;-40
2022/12/03 06:01:01;;;;;;;2.92;0.95;;;27.30;91.30;;;;;;5127938;28;20042;-39
2022/12/03 06:03:28;;;;;;;8.57;1.30;;;27.30;91.30;;;;;;5127803;28;20083;-38
2022/12/03 06:05:54;;;;;;;2.95;1.02;;;27.20;91.40;;;;;;5127746;28;20266;-44
2022/12/03 06:08:21;;;;;;;6.88;1.40;;;27.20;91.40;;;;;;5127923;28;20034;-39
2022/12/03 06:10:47;;;;;;;2.88;1.10;;;27.20;91.40;;;;;;5123464;28;20069;-43
2022/12/03 06:13:14;;;;;;;3.33;1.02;;;27.20;91.50;;;;;;5110494;28;20026;-39
2022/12/03 06:15:40;;;;;;;3.25;1.00;;;27.20;91.70;;;;;;5126678;28;20311;-42
2022/12/03 06:18:07;;;;;;;4.55;1.05;;;27.20;91.40;;;;;;5127345;28;20032;-39
2022/12/03 06:20:33;;;;;;;4.40;1.20;;;27.10;91.50;;;;;;5117449;28;20027;-43
2022/12/03 06:23:00;;;;;;;4.53;1.00;;;27.10;91.40;;;;;;5121180;28;20039;-46
2022/12/03 06:25:26;;;;;;;9.13;1.48;;;27.10;91.40;;;;;;5127368;28;20212;-38
2022/12/03 06:27:53;;;;;;;8.20;1.83;;;27.10;91.50;;;;;;5127312;28;20023;-40
2022/12/03 06:30:19;;;;;;;14.52;1.58;;;27.10;91.50;;;;;;5127339;28;20023;-39
2022/12/03 06:32:46;;;;;;;11.77;1.77;;;27.10;91.50;;;;;;5127344;28;20037;-38
2022/12/03 06:35:12;;;;;;;21.98;2.40;;;27.10;91.50;;;;;;5127833;28;20062;-42
2022/12/03 06:37:39;;;;;;;16.38;2.05;;;27.10;91.50;;;;;;5127450;28;20316;-40
2022/12/03 06:40:06;;;;;;;21.48;2.13;;;27.10;91.60;;;;;;5127642;28;20016;-39
2022/12/03 06:42:32;;;;;;;15.57;2.05;;;27.10;91.70;;;;;;5127226;28;20036;-41
2022/12/03 06:44:59;;;;;;;15.35;1.80;;;27.10;91.60;;;;;;5127713;28;20122;-45
2022/12/03 06:47:27;;;;;;;7.03;1.60;;;27.10;91.70;;;;;;5127246;28;20035;-43
2022/12/03 06:49:53;;;;;;;7.28;1.63;;;27.00;91.60;;;;;;5127435;28;20024;-40
2022/12/03 06:52:20;;;;;;;9.35;1.13;;;27.00;91.70;;;;;;5126915;28;20266;-44
2022/12/03 06:54:46;;;;;;;7.18;1.40;;;27.00;91.70;;;;;;5127529;28;20034;-39
2022/12/03 06:57:13;;;;;;;8.63;1.48;;;27.00;91.80;;;;;;5126913;28;20039;-38
2022/12/03 06:59:40;;;;;;;10.30;1.35;;;26.90;91.70;;;;;;5126770;28;20035;-39
2022/12/03 07:02:07;;;;;;;6.15;1.20;;;26.90;91.70;;;;;;5126989;28;20023;-42
2022/12/03 07:04:33;;;;;;;4.25;1.20;;;26.90;91.70;;;;;;5126907;28;20016;-39
2022/12/03 07:07:00;;;;;;;7.20;1.60;;;26.90;91.70;;;;;;5126741;28;20031;-41
2022/12/03 07:09:26;;;;;;;6.35;1.20;;;26.90;91.70;;;;;;5126861;28;20032;-45
2022/12/03 07:11:53;;;;;;;4.35;1.30;;;26.90;91.70;;;;;;5126358;28;20039;-38
2022/12/03 07:14:19;;;;;;;3.33;1.40;;;26.90;91.70;;;;;;5127140;28;20082;-40
2022/12/03 07:16:46;;;;;;;4.85;1.13;;;26.90;91.70;;;;;;5126550;28;20050;-42
2022/12/03 07:19:13;;;;;;;4.78;1.40;;;26.90;91.70;;;;;;5126642;28;20031;-39
2022/12/03 07:21:39;;;;;;;3.80;1.17;;;26.90;91.80;;;;;;5126428;28;20092;-41
2022/12/03 07:24:06;;;;;;;4.53;1.13;;;26.90;91.80;;;;;;5126773;28;20320;-39
2022/12/03 07:26:33;;;;;;;2.90;1.10;;;26.80;91.80;;;;;;5126266;28;20038;-39
2022/12/03 07:28:59;;;;;;;3.88;1.25;;;26.80;91.80;;;;;;5126670;28;20023;-39
2022/12/03 07:31:26;;;;;;;6.50;1.40;;;26.80;91.90;;;;;;5126223;28;20039;-40
2022/12/03 07:33:53;;;;;;;3.22;1.10;;;26.70;91.90;;;;;;5122648;28;20061;-47
2022/12/03 07:36:19;;;;;;;4.28;1.25;;;26.70;91.90;;;;;;5105696;28;20051;-40
2022/12/03 07:38:46;;;;;;;3.20;1.00;;;26.70;91.90;;;;;;5122123;28;20015;-39
2022/12/03 07:41:12;;;;;;;2.38;1.17;;;26.70;91.90;;;;;;5109974;28;20027;-42
2022/12/03 07:43:39;;;;;;;4.22;1.40;;;26.70;92.00;;;;;;5105544;28;20052;-42
2022/12/03 07:46:05;;;;;;;3.20;1.10;;;26.60;92.00;;;;;;5106210;28;20063;-40
2022/12/03 07:48:32;;;;;;;2.95;1.02;;;26.60;92.00;;;;;;5118168;28;20028;-42
2022/12/03 07:50:58;;;;;;;1.98;0.82;;;26.60;91.90;;;;;;5105277;28;20091;-44
2022/12/03 07:53:25;;;;;;;4.28;1.00;;;26.60;91.90;;;;;;5105646;28;20083;-40
2022/12/03 07:55:51;;;;;;;5.13;0.93;;;26.60;91.90;;;;;;5111764;28;20032;-43
2022/12/03 07:58:18;;;;;;;2.50;0.90;;;26.60;91.90;;;;;;5125669;28;20026;-39
2022/12/03 08:00:44;;;;;;;3.25;0.77;;;26.60;91.90;;;;;;5096848;28;20048;-37
2022/12/03 08:03:11;;;;;;;3.42;1.08;;;26.50;91.80;;;;;;5107278;28;20016;-40
2022/12/03 08:05:37;;;;;;;1.80;0.70;;;26.50;91.80;;;;;;5105172;28;20020;-41
2022/12/03 08:08:04;;;;;;;6.40;0.98;;;26.50;91.80;;;;;;5110354;28;20031;-45
2022/12/03 08:10:31;;;;;;;5.30;1.05;;;26.50;91.80;;;;;;5125513;28;20027;-42
2022/12/03 08:12:58;;;;;;;4.65;1.05;;;26.40;91.70;;;;;;5120951;28;20027;-39
2022/12/03 08:15:29;;;;;;;3.97;1.13;;;26.50;91.80;;;;;;5106164;28;20032;-41
2022/12/03 08:18:00;;;;;;;1.70;0.80;;;26.50;91.80;;;;;;5104960;28;20023;-44
2022/12/03 08:20:33;;;;;;;1.35;0.75;;;26.50;91.70;;;;;;5104887;28;20032;-41
2022/12/03 08:23:09;;;;;;;2.95;0.80;;;26.40;91.70;;;;;;5104972;28;20043;-40
2022/12/03 08:25:35;;;;;;;2.75;0.80;;;26.40;91.60;;;;;;5104956;28;20316;-37
2022/12/03 08:28:07;;;;;;;2.80;0.80;;;26.40;91.60;;;;;;5104765;28;20046;-44
2022/12/03 08:30:33;;;;;;;3.30;0.90;;;26.40;91.70;;;;;;5104839;28;20024;-41
2022/12/03 08:33:00;;;;;;;2.00;0.73;;;26.40;91.70;;;;;;5115308;28;20035;-39
2022/12/03 08:35:31;;;;;;;1.30;0.68;;;26.30;91.60;;;;;;5104895;28;20031;-41
2022/12/03 08:38:08;;;;;;;5.35;1.10;;;26.40;91.60;;;;;;5104504;28;20335;-42
2022/12/03 08:40:40;;;;;;;5.18;0.98;;;26.30;91.60;;;;;;5104568;28;20024;-39
2022/12/03 08:43:24;;;;;;;6.07;1.20;;;26.30;91.70;;;;;;5104437;28;20028;-42
2022/12/03 08:45:55;;;;;;;8.55;2.53;;;26.30;91.70;;;;;;5104451;28;20024;-41
2022/12/03 08:48:37;;;;;;;13.70;3.35;;;26.30;91.70;;;;;;5104723;28;20020;-52
2022/12/03 08:51:11;;;;;;;9.45;2.65;;;26.30;91.80;;;;;;5104237;28;20036;-46
2022/12/03 08:53:46;;;;;;;7.47;2.28;;;26.30;91.80;;;;;;5104555;28;20049;-39
2022/12/03 08:56:23;;;;;;;7.57;2.20;;;26.30;91.90;;;;;;5104537;28;20092;-42
2022/12/03 08:58:59;;;;;;;8.18;1.80;;;26.30;91.90;;;;;;5104395;28;20095;-39
2022/12/03 09:01:29;;;;;;;5.05;1.60;;;26.30;91.90;;;;;;5104140;28;20095;-42
2022/12/03 09:03:58;;;;;;;6.30;1.90;;;26.30;91.90;;;;;;5086289;28;20036;-46
2022/12/03 09:06:25;;;;;;;5.63;1.70;;;26.30;91.90;;;;;;5102554;28;20038;-43
2022/12/03 09:08:51;;;;;;;5.15;1.75;;;26.30;91.90;;;;;;5135585;27;20088;-45
2022/12/03 09:11:18;;;;;;;5.80;1.33;;;26.30;91.90;;;;;;5136446;27;20084;-41
2022/12/03 09:13:44;;;;;;;3.05;1.13;;;26.30;92.00;;;;;;5124592;28;20015;-42
2022/12/03 09:16:11;;;;;;;5.63;1.50;;;26.30;91.90;;;;;;5124330;28;20036;-39
2022/12/03 09:18:37;;;;;;;5.38;1.30;;;26.30;92.00;;;;;;5124786;28;20019;-40
2022/12/03 09:21:04;;;;;;;6.38;1.25;;;26.30;92.00;;;;;;5124433;28;20027;-42
2022/12/03 09:23:30;;;;;;;5.88;1.80;;;26.30;92.00;;;;;;5124228;28;20072;-42
2022/12/03 09:25:57;;;;;;;4.93;2.47;;;26.30;92.30;;;;;;5124495;28;20406;-45
2022/12/03 09:28:23;;;;;;;7.68;3.25;;;26.20;92.00;;;;;;5124372;28;20023;-41
2022/12/03 09:30:50;;;;;;;9.02;3.80;;;26.20;92.10;;;;;;5111191;28;20316;-44
2022/12/03 09:33:16;;;;;;;8.90;3.15;;;26.20;92.00;;;;;;5103955;28;20016;-43
2022/12/03 09:35:43;;;;;;;3.90;2.63;;;26.20;92.10;;;;;;5104001;28;20141;-40
2022/12/03 09:38:10;;;;;;;3.72;1.80;;;26.10;92.10;;;;;;5103473;28;20024;-39
2022/12/03 09:40:36;;;;;;;3.85;1.98;;;26.10;92.10;;;;;;5103719;28;20027;-45
2022/12/03 09:43:03;;;;;;;2.83;1.67;;;26.10;92.10;;;;;;5103770;28;20020;-39
2022/12/03 09:45:29;;;;;;;6.13;1.77;;;26.00;92.10;;;;;;5103594;28;20062;-41
2022/12/03 09:47:57;;;;;;;5.18;1.50;;;26.00;92.20;;;;;;5103594;28;20028;-41
2022/12/03 09:50:25;;;;;;;6.78;1.80;;;26.00;92.30;;;;;;5103611;28;20339;-38
2022/12/03 09:52:54;;;;;;;4.43;1.58;;;25.90;92.40;;;;;;5103350;28;20038;-41
2022/12/03 09:55:24;;;;;;;7.18;1.67;;;25.90;92.40;;;;;;5103769;28;20320;-42
2022/12/03 09:57:54;;;;;;;17.02;2.53;;;25.90;92.50;;;;;;5103549;28;20031;-42
2022/12/03 10:00:29;;;;;;;8.32;2.10;;;25.90;92.50;;;;;;5103340;28;20048;-39
2022/12/03 10:03:03;;;;;;;3.85;1.50;;;25.90;92.50;;;;;;5103504;28;20022;-40
2022/12/03 10:05:30;;;;;;;3.67;1.40;;;25.80;92.60;;;;;;5103566;28;20117;-40
2022/12/03 10:08:16;;;;;;;8.65;1.60;;;25.90;92.60;;;;;;5103459;28;20027;-39
2022/12/03 10:10:44;;;;;;;6.75;1.35;;;25.90;92.50;;;;;;5103177;28;20036;-41
2022/12/03 10:13:16;;;;;;;3.58;1.50;;;25.90;92.50;;;;;;5111499;28;20062;-39
2022/12/03 10:15:43;;;;;;;6.85;1.38;;;25.90;92.50;;;;;;5123716;28;20088;-39
2022/12/03 10:18:30;;;;;;;8.32;1.60;;;25.80;92.40;;;;;;5125899;28;20035;-40
2022/12/03 10:20:57;;;;;;;5.22;1.17;;;25.70;92.50;;;;;;5127518;28;20063;-40
2022/12/03 10:23:29;;;;;;;5.80;1.58;;;25.70;92.50;;;;;;5127387;28;20053;-43
2022/12/03 10:26:02;;;;;;;16.88;1.83;;;25.70;92.80;;;;;;5127745;28;20024;-45
2022/12/03 10:28:43;;;;;;;23.20;2.83;;;25.70;92.60;;;;;;5127542;28;20076;-38
2022/12/03 10:31:11;;;;;;;7.07;1.75;;;25.70;92.70;;;;;;5127398;28;20238;-42
2022/12/03 10:33:44;;;;;;;6.25;1.58;;;25.70;92.60;;;;;;5127638;28;20019;-41
2022/12/03 10:36:27;;;;;;;;;;;25.70;92.70;;;;;;5127613;28;20204;-40
2022/12/03 10:39:17;;;;;;;4.55;1.80;;;25.70;92.70;;;;;;5109230;28;19903;-50
2022/12/03 10:41:44;;;;;;;5.78;1.70;;;25.60;92.70;;;;;;5127260;28;20036;-39
2022/12/03 10:44:29;;;;;;;5.03;1.77;;;25.60;92.80;;;;;;5127546;28;20050;-41
2022/12/03 10:47:10;;;;;;;5.03;2.20;;;25.60;92.80;;;;;;5127096;28;20040;-39
2022/12/03 10:49:38;;;;;;;7.63;2.30;;;25.60;92.90;;;;;;5127443;28;20027;-43
2022/12/03 10:52:13;;;;;;;4.35;2.00;;;25.60;92.90;;;;;;5127024;28;20281;-42
2022/12/03 10:54:40;;;;;;;2.88;1.70;;;25.60;92.90;;;;;;5127585;28;20023;-46
2022/12/03 10:57:09;;;;;;;5.53;1.48;;;25.60;92.90;;;;;;5126881;28;20030;-42
2022/12/03 10:59:37;;;;;;;5.18;1.58;;;25.60;93.00;;;;;;5126863;28;20131;-46
2022/12/03 11:02:27;;;;;;;2.45;1.52;;;25.60;93.00;;;;;;5127252;28;20141;-42
2022/12/03 11:04:54;;;;;;;6.07;1.70;;;25.60;93.00;;;;;;5126937;28;20060;-45
2022/12/03 11:07:23;;;;;;;6.53;1.80;;;25.60;93.10;;;;;;5126797;28;20045;-45
2022/12/03 11:09:57;;;;;;;6.28;1.90;;;25.60;93.10;;;;;;5122172;28;20028;-39
2022/12/03 11:12:33;;;;;;;9.25;1.95;;;25.60;93.00;;;;;;5118037;28;20032;-38
2022/12/03 11:15:07;;;;;;;6.43;1.88;;;25.60;93.10;;;;;;5118739;28;20072;-41
2022/12/03 11:17:52;;;;;;;7.20;2.00;;;25.50;93.10;;;;;;5126549;28;20027;-40
2022/12/03 11:20:24;;;;;;;7.88;2.15;;;25.60;93.20;;;;;;5126269;28;20320;-40
2022/12/03 11:22:51;;;;;;;21.80;2.50;;;25.60;93.20;;;;;;5126431;28;20056;-41
2022/12/03 11:25:27;;;;;;;13.25;2.38;;;25.60;93.30;;;;;;5126484;28;20027;-47
2022/12/03 11:28:12;;;;;;;15.90;2.75;;;25.60;93.40;;;;;;5105912;28;20073;-43
2022/12/03 11:30:50;;;;;;;15.02;2.60;;;25.60;93.40;;;;;;5104895;28;20032;-45
2022/12/03 11:33:28;;;;;;;12.43;2.22;;;25.60;93.40;;;;;;5105918;28;20200;-42
2022/12/03 11:36:15;;;;;;;14.68;2.40;;;25.60;93.30;;;;;;5126057;28;20193;-50
2022/12/03 11:38:49;;;;;;;7.45;2.10;;;25.70;93.30;;;;;;5118955;28;20028;-49
2022/12/03 11:41:22;;;;;;;8.38;2.65;;;25.70;93.30;;;;;;5118956;28;20352;-43
2022/12/03 11:43:52;;;;;;;10.63;2.55;;;25.70;93.30;;;;;;5113602;28;20043;-48
2022/12/03 11:46:43;;;;;;;6.40;3.30;;;25.70;93.40;;;;;;5113242;28;20023;-40
2022/12/03 11:49:36;;;;;;;12.13;4.20;;;25.70;93.40;;;;;;5125249;28;20031;-41
2022/12/03 11:52:20;;;;;;;11.82;5.80;;;25.80;93.40;;;;;;5125146;28;20031;-46
2022/12/03 11:54:50;;;;;;;14.30;4.70;;;25.80;93.40;;;;;;5119573;28;20020;-44
2022/12/03 11:57:27;;;;;;;11.68;4.95;;;25.90;93.40;;;;;;5111244;28;20073;-45
2022/12/03 12:00:02;;;;;;;6.38;3.45;;;25.80;93.50;;;;;;5105444;28;20048;-41
2022/12/03 12:02:28;;;;;;;6.97;3.90;;;25.90;93.40;;;;;;5117799;28;20024;-41
2022/12/03 12:04:55;;;;;;;7.43;3.40;;;25.90;93.30;;;;;;5105800;28;20339;-40
2022/12/03 12:07:35;;;;;;;10.20;3.10;;;25.90;93.30;;;;;;5113539;28;20065;-43
2022/12/03 12:10:03;;;;;;;11.10;3.08;;;26.00;93.20;;;;;;5105645;28;20119;-42
2022/12/03 12:12:36;;;;;;;7.68;3.40;;;26.00;93.20;;;;;;5091348;28;20032;-40
2022/12/03 12:15:34;;;;;;;8.68;3.00;;;26.10;93.10;;;;;;5107281;27;20300;-43
2022/12/03 12:18:37;;;;;;;10.27;2.92;;;26.20;93.10;;;;;;5109416;28;20035;-46
2022/12/03 12:21:43;;;;;;;6.90;2.60;;;26.20;93.10;;;;;;5105153;28;20056;-39
2022/12/03 12:24:29;;;;;;;6.38;2.47;;;26.30;93.10;;;;;;5105183;28;20091;-43
2022/12/03 12:26:59;;;;;;;10.98;2.60;;;26.30;93.00;;;;;;5105088;28;20032;-43
2022/12/03 12:29:26;;;;;;;8.73;2.58;;;26.40;93.00;;;;;;5106215;28;20032;-46
2022/12/03 12:32:21;;;;;;;9.93;2.40;;;26.40;92.90;;;;;;5104995;28;20055;-39
2022/12/03 12:34:50;;;;;;;10.52;3.00;;;26.50;92.90;;;;;;5103083;28;20031;-45
2022/12/03 12:37:30;;;;;;;7.75;2.20;;;26.50;92.80;;;;;;5104634;28;20315;-45
2022/12/03 12:39:57;;;;;;;11.45;2.15;;;26.60;92.70;;;;;;5104585;28;20308;-42
2022/12/03 12:42:30;;;;;;;9.55;2.38;;;26.60;92.50;;;;;;5112646;28;20047;-39
2022/12/03 12:45:10;;;;;;;5.15;2.13;;;26.60;92.60;;;;;;5125474;28;20043;-43
2022/12/03 12:47:37;;;;;;;4.47;1.80;;;26.60;92.40;;;;;;5112936;28;20073;-42
2022/12/03 12:50:10;;;;;;;6.45;2.03;;;26.70;92.40;;;;;;5118091;28;20062;-39
2022/12/03 12:52:51;;;;;;;9.90;1.90;;;26.70;92.30;;;;;;5120464;28;20019;-43
2022/12/03 12:55:18;;;;;;;5.75;1.80;;;26.70;92.20;;;;;;5116324;28;20028;-41
2022/12/03 12:57:46;;;;;;;7.90;2.00;;;26.80;92.30;;;;;;5112193;28;20033;-41
2022/12/03 13:00:19;;;;;;;5.45;1.83;;;26.80;92.10;;;;;;5118180;28;20047;-40
2022/12/03 13:03:00;;;;;;;6.13;1.60;;;26.80;92.10;;;;;;5108089;27;20039;-41
2022/12/03 13:05:38;;;;;;;5.45;1.80;;;26.80;92.10;;;;;;5118615;28;20028;-40
2022/12/03 13:08:20;;;;;;;5.65;1.63;;;26.90;92.10;;;;;;5104147;28;20055;-39
2022/12/03 13:10:47;;;;;;;6.60;1.57;;;26.90;91.90;;;;;;5104036;28;20331;-42
2022/12/03 13:13:23;;;;;;;4.63;1.70;;;26.90;91.90;;;;;;5104190;28;20477;-40